Orient Crusader — 5BZN2 — position and weather

sailwx.info

Track history (hours):
 
Tides and Currents Weather Stations Pressure Air Temp Water Temp Dewpoint Dewpoint Depression Visibility Wind Speed Wind Dir Waves Ship Positions

Orient Crusader

Last reported at 2018-Jun-14 17:17 UTC. Time now 2018-Jul-17 01:45 UTC.
Position N 30°50' E 122°32'.
Warning: this ship's position is 32 days out of date.

Length 255 m; draft 8.2 m.

Type: Cargo ship. MMSI: 209038000.

Date/timePositionNaut miles runAvg speedWind from/ knotsBaromVisibWave heightAir tempDewpointWater temp
2018-Jun-14 17:17N 30°50' E 122°32'411.8
2018-Jun-14 16:57N 30°54' E 122°30'511.6
2018-Jun-14 16:28N 30°59' E 122°29'611.9
2018-Jun-14 16:00N 31°01' E 122°23'611.3
2018-Jun-14 15:30N 31°02' E 122°17'4 8.7
2018-Jun-14 15:00N 31°02' E 122°12'5 9.2
2018-Jun-14 14:30N 31°04' E 122°06'4 8.7
2018-Jun-14 14:00N 31°05' E 122°02'3 6.6
2018-Jun-14 13:30N 31°06' E 121°58'3 5.3
2018-Jun-14 13:00N 31°08' E 121°55'4 7.7
2018-Jun-14 12:29N 31°10' E 121°52'8310.2
2018-Jun-14 04:18N 32°01' E 120°34'613.2
2018-Jun-14 03:49N 32°02' E 120°27'  
2018-Jun-10 03:10N 32°02' E 120°27'311.1
2018-Jun-10 02:56N 32°02' E 120°30'35 9.2
2018-Jun-09 23:09N 31°45' E 121°05'2 9.8
2018-Jun-09 22:59N 31°44' E 121°07'5 9.8
2018-Jun-09 22:30N 31°41' E 121°11'4 9.1
2018-Jun-09 22:00N 31°38' E 121°15'4 8.7
2018-Jun-09 21:30N 31°35' E 121°19'0 0.6
2018-Jun-09 20:55N 31°35' E 121°19'0 0.0
2018-Jun-09 20:28N 31°35' E 121°19'0 0.0
2018-Jun-09 19:58N 31°35' E 121°19'0 0.1
2018-Jun-09 19:25N 31°35' E 121°19'0 0.0
2018-Jun-09 18:55N 31°35' E 121°19'0 0.0
2018-Jun-09 18:28N 31°35' E 121°19'0 0.0
2018-Jun-09 17:58N 31°35' E 121°19'0 0.0
2018-Jun-09 17:28N 31°35' E 121°19'0 0.0
2018-Jun-09 16:49N 31°35' E 121°19'0 0.1
2018-Jun-09 16:28N 31°35' E 121°19'0 0.1
2018-Jun-09 15:55N 31°35' E 121°19'0 0.2
2018-Jun-09 14:56N 31°35' E 121°19'1 2.2
2018-Jun-09 14:30N 31°34' E 121°19'3 6.6
2018-Jun-09 13:59N 31°32' E 121°22'5 9.9
2018-Jun-09 13:30N 31°29' E 121°27'  
Track history (hours):
 
Tides and Currents Weather Stations Pressure Air Temp Water Temp Dewpoint Dewpoint Depression Visibility Wind Speed Wind Dir Waves Ship Positions

Orient Crusader

Last reported at 2018-Jun-14 17:17 UTC. Time now 2018-Jul-17 01:45 UTC.
Position N 30°50' E 122°32'.
Warning: this ship's position is 32 days out of date.

Length 255 m; draft 8.2 m.

Type: Cargo ship. MMSI: 209038000.

Date/timePositionNaut miles runAvg speedWind from/ knotsBaromVisibWave heightAir tempDewpointWater temp
2018-Jun-14 17:17N 30°50' E 122°32'411.8
2018-Jun-14 16:57N 30°54' E 122°30'511.6
2018-Jun-14 16:28N 30°59' E 122°29'611.9
2018-Jun-14 16:00N 31°01' E 122°23'611.3
2018-Jun-14 15:30N 31°02' E 122°17'4 8.7
2018-Jun-14 15:00N 31°02' E 122°12'5 9.2
2018-Jun-14 14:30N 31°04' E 122°06'4 8.7
2018-Jun-14 14:00N 31°05' E 122°02'3 6.6
2018-Jun-14 13:30N 31°06' E 121°58'3 5.3
2018-Jun-14 13:00N 31°08' E 121°55'4 7.7
2018-Jun-14 12:29N 31°10' E 121°52'8310.2
2018-Jun-14 04:18N 32°01' E 120°34'613.2
2018-Jun-14 03:49N 32°02' E 120°27'  
2018-Jun-10 03:10N 32°02' E 120°27'311.1
2018-Jun-10 02:56N 32°02' E 120°30'35 9.2
2018-Jun-09 23:09N 31°45' E 121°05'2 9.8
2018-Jun-09 22:59N 31°44' E 121°07'5 9.8
2018-Jun-09 22:30N 31°41' E 121°11'4 9.1
2018-Jun-09 22:00N 31°38' E 121°15'4 8.7
2018-Jun-09 21:30N 31°35' E 121°19'0 0.6
2018-Jun-09 20:55N 31°35' E 121°19'0 0.0
2018-Jun-09 20:28N 31°35' E 121°19'0 0.0
2018-Jun-09 19:58N 31°35' E 121°19'0 0.1
2018-Jun-09 19:25N 31°35' E 121°19'0 0.0
2018-Jun-09 18:55N 31°35' E 121°19'0 0.0
2018-Jun-09 18:28N 31°35' E 121°19'0 0.0
2018-Jun-09 17:58N 31°35' E 121°19'0 0.0
2018-Jun-09 17:28N 31°35' E 121°19'0 0.0
2018-Jun-09 16:49N 31°35' E 121°19'0 0.1
2018-Jun-09 16:28N 31°35' E 121°19'0 0.1
2018-Jun-09 15:55N 31°35' E 121°19'0 0.2
2018-Jun-09 14:56N 31°35' E 121°19'1 2.2
2018-Jun-09 14:30N 31°34' E 121°19'3 6.6
2018-Jun-09 13:59N 31°32' E 121°22'5 9.9
2018-Jun-09 13:30N 31°29' E 121°27'  

Dump ship's entire track history